Hood River, Oregon
Current Conditions -  °F | °C
As of 7:59 PM on Sunday 25 Jan 2015 (Local Time) from K4S2 Reporting Station
Haze Haze  
Wind Chill: 41°   Ceiling: Unl
Heat Index: 41°   Visibility: 2.5mi
Dew Point: 41°   Wind: 0mph
Humidity: 100%   Direction: NA
Pressure: 30.11"   Gusts: NA
Location:  45.71°N, 121.52°W
Report Text: K4S2 260359Z AUTO 00000KT 2 1/2SM BR SCT001 SCT047 05/05 A3011 RMK AO2 SLP212 T00500050
Loading
Personal Weather Stations






























Interactive Weather Map New forecast layout! Learn more

10-Day Weather Forecast

Advertisements
Track Severe Weather on mobile